KCBF/CBF METAR and TAF weather

Enter ICAO airport designator
Station Type Date Time Source
KCBF METAR 2018/01/19 22:55 UTC NOAA

KCBF 192255Z AUTO 20013G21KT 10SM CLR 05/M01 A2966 RMK AO2


Station Type Date Time Source
KCBF Decoded METAR 2018/01/19 22:55 UTC NOAA

Council Bluffs, IA, United States (KCBF) 41-16N 095-46W
Jan 19, 2018 - 05:55 PM EST / 2018.01.19 2255 UTC
Wind: from the SSW (200 degrees) at 15 MPH (13 KT) gusting to 24 MPH (21 KT):0
Visibility: 10 mile(s):0
Sky conditions: clear
Temperature: 41 F (5 C)
Dew Point: 30 F (-1 C)
Relative Humidity: 65%
Pressure (altimeter): 29.66 in. Hg (1004 hPa)
ob: KCBF 192255Z AUTO 20013G21KT 10SM CLR 05/M01 A2966 RMK AO2
cycle: 23

Station Type Date Time Source
KCBF TAF UTC NOAA

Error!


Example: see airport list